createdAt,value
2023-02-11T00:01:37.755Z,58.44
2023-02-11T00:04:06.258Z,58.52
2023-02-11T00:06:35.649Z,58.54
2023-02-11T00:09:08.837Z,58.50
2023-02-11T00:11:38.030Z,58.66
2023-02-11T00:14:08.080Z,58.74
2023-02-11T00:16:36.304Z,58.73
2023-02-11T00:19:06.387Z,58.74
2023-02-11T00:21:38.274Z,58.75
2023-02-11T00:24:06.996Z,58.73
2023-02-11T00:26:36.843Z,58.79
2023-02-11T00:29:05.958Z,58.81
2023-02-11T00:31:36.207Z,58.72
2023-02-11T00:34:09.655Z,58.81
2023-02-11T00:36:39.623Z,58.83
2023-02-11T00:39:10.235Z,58.81
2023-02-11T00:41:38.620Z,58.83
2023-02-11T00:44:07.436Z,58.76
2023-02-11T00:46:35.580Z,58.84
2023-02-11T00:49:03.791Z,58.90
2023-02-11T00:51:32.890Z,59.05
2023-02-11T00:54:01.225Z,59.00
2023-02-11T00:56:29.521Z,59.00
2023-02-11T00:58:58.369Z,59.04
2023-02-11T01:01:26.620Z,59.10
2023-02-11T01:03:55.386Z,59.18
2023-02-11T01:06:24.933Z,59.13
2023-02-11T01:08:53.174Z,59.06
2023-02-11T01:11:22.245Z,59.16
2023-02-11T01:13:50.536Z,59.16
2023-02-11T01:16:19.460Z,59.32
2023-02-11T01:18:48.657Z,59.42
2023-02-11T01:21:19.181Z,59.45
2023-02-11T01:23:47.512Z,59.53
2023-02-11T01:26:15.978Z,59.55
2023-02-11T01:28:44.378Z,59.71
2023-02-11T01:31:12.941Z,59.82
2023-02-11T01:33:41.131Z,59.94
2023-02-11T01:36:10.836Z,59.92
2023-02-11T01:38:46.514Z,60.01
2023-02-11T01:41:15.434Z,60.16
2023-02-11T01:43:46.883Z,60.27
2023-02-11T01:46:37.307Z,60.42
2023-02-11T01:49:12.157Z,60.38
2023-02-11T01:52:02.588Z,60.44
2023-02-11T01:54:52.384Z,60.56
2023-02-11T01:57:27.835Z,60.57
2023-02-11T02:00:33.563Z,60.72
2023-02-11T02:03:07.110Z,60.78
2023-02-11T02:05:49.698Z,60.89
2023-02-11T02:08:33.317Z,60.96
2023-02-11T02:11:07.904Z,60.98
2023-02-11T02:13:40.204Z,60.96
2023-02-11T02:16:13.238Z,61.11
2023-02-11T02:19:26.522Z,61.18
2023-02-11T02:22:05.170Z,61.25
2023-02-11T02:25:05.482Z,61.22
2023-02-11T02:28:12.742Z,61.31
2023-02-11T02:31:12.473Z,61.37
2023-02-11T02:33:45.311Z,61.39
2023-02-11T02:36:32.711Z,61.40
2023-02-11T02:39:08.520Z,61.57
2023-02-11T02:41:36.940Z,61.64
2023-02-11T02:44:05.320Z,61.71
2023-02-11T02:46:37.175Z,61.96
2023-02-11T02:49:07.321Z,61.86
2023-02-11T02:52:14.550Z,61.94
2023-02-11T02:55:08.915Z,62.05
2023-02-11T02:58:05.425Z,62.05
2023-02-11T03:01:00.279Z,62.26
2023-02-11T03:03:31.824Z,62.24
2023-02-11T03:06:14.317Z,62.34
2023-02-11T03:08:51.383Z,62.37
2023-02-11T03:11:21.025Z,62.45
2023-02-11T03:13:50.020Z,62.50
2023-02-11T03:16:25.099Z,62.53
2023-02-11T03:19:21.953Z,62.54
2023-02-11T03:21:50.873Z,62.76
2023-02-11T03:24:32.956Z,62.73
2023-02-11T03:27:10.079Z,62.76
2023-02-11T03:30:14.042Z,62.78
2023-02-11T03:33:01.381Z,62.83
2023-02-11T03:35:35.910Z,62.83
2023-02-11T03:38:43.025Z,62.93
2023-02-11T03:41:11.046Z,63.07
2023-02-11T03:43:44.950Z,63.07
2023-02-11T03:46:13.696Z,63.13
2023-02-11T03:48:44.592Z,63.17
2023-02-11T03:51:12.894Z,63.28
2023-02-11T03:53:42.467Z,63.28
2023-02-11T03:56:14.665Z,63.36
2023-02-11T03:58:45.780Z,63.54
2023-02-11T04:01:14.311Z,63.55
2023-02-11T04:03:42.736Z,63.61
2023-02-11T04:06:10.810Z,63.81
2023-02-11T04:08:39.236Z,63.80
2023-02-11T04:11:12.165Z,63.90
2023-02-11T04:13:40.527Z,63.91
2023-02-11T04:16:09.056Z,63.97
2023-02-11T04:18:42.844Z,64.11
2023-02-11T04:21:10.942Z,64.09
2023-02-11T04:23:39.095Z,64.11
2023-02-11T04:26:07.569Z,64.12
2023-02-11T04:28:36.619Z,64.26
2023-02-11T04:31:05.481Z,64.24
2023-02-11T04:33:33.658Z,64.31
2023-02-11T04:36:02.470Z,64.43
2023-02-11T04:38:30.796Z,64.35
2023-02-11T04:41:00.712Z,64.33
2023-02-11T04:43:32.060Z,64.40
2023-02-11T04:46:00.422Z,64.41
2023-02-11T04:48:28.854Z,64.52
2023-02-11T04:50:57.393Z,64.51
2023-02-11T04:53:25.861Z,64.46
2023-02-11T04:55:54.018Z,64.48
2023-02-11T04:58:22.447Z,64.68
2023-02-11T05:00:50.969Z,64.75
2023-02-11T05:03:19.301Z,64.83
2023-02-11T05:05:47.360Z,64.93
2023-02-11T05:08:15.411Z,65.01
2023-02-11T05:10:47.219Z,65.08
2023-02-11T05:13:16.269Z,65.31
2023-02-11T05:15:49.066Z,65.45
2023-02-11T05:18:17.631Z,65.55
2023-02-11T05:20:45.811Z,65.67
2023-02-11T05:23:14.072Z,65.80
2023-02-11T05:25:42.421Z,65.97
2023-02-11T05:28:11.098Z,66.00
2023-02-11T05:30:39.500Z,66.04
2023-02-11T05:33:07.694Z,66.10
2023-02-11T05:35:36.494Z,66.26
2023-02-11T05:38:04.800Z,66.27
2023-02-11T05:40:33.350Z,66.33
2023-02-11T05:43:01.986Z,66.47
2023-02-11T05:45:30.576Z,66.38
2023-02-11T05:47:59.481Z,66.51
2023-02-11T05:50:28.216Z,66.61
2023-02-11T05:52:56.408Z,66.52
2023-02-11T05:55:25.192Z,66.59
2023-02-11T05:57:53.460Z,66.60
2023-02-11T06:00:21.737Z,66.60
2023-02-11T06:02:49.930Z,66.53
2023-02-11T06:05:18.280Z,66.57
2023-02-11T06:07:47.748Z,66.52
2023-02-11T06:10:15.849Z,66.67
2023-02-11T06:12:45.003Z,66.76
2023-02-11T06:15:13.550Z,66.77
2023-02-11T06:17:42.828Z,66.94
2023-02-11T06:20:15.562Z,66.92
2023-02-11T06:22:43.624Z,66.97
2023-02-11T06:25:12.109Z,67.14
2023-02-11T06:27:41.182Z,67.17
2023-02-11T06:30:10.419Z,67.23
2023-02-11T06:32:44.475Z,67.25
2023-02-11T06:35:14.474Z,67.32
2023-02-11T06:37:43.154Z,67.21
2023-02-11T06:40:11.909Z,67.28
2023-02-11T06:42:41.736Z,67.27
2023-02-11T06:45:11.141Z,67.33
2023-02-11T06:47:41.573Z,67.35
2023-02-11T06:50:12.280Z,67.12
2023-02-11T06:52:40.670Z,67.18
2023-02-11T06:55:08.954Z,67.16
2023-02-11T06:57:38.851Z,67.08
2023-02-11T07:00:08.035Z,67.01
2023-02-11T07:02:37.666Z,66.94
2023-02-11T07:05:07.255Z,66.71
2023-02-11T07:07:36.216Z,66.50
2023-02-11T07:10:07.578Z,66.49
2023-02-11T07:12:41.370Z,66.26
2023-02-11T07:15:10.345Z,66.05
2023-02-11T07:17:38.815Z,66.00
2023-02-11T07:20:09.205Z,65.99
2023-02-11T07:22:37.537Z,65.85
2023-02-11T07:25:05.987Z,65.80
2023-02-11T07:27:35.003Z,65.83
2023-02-11T07:30:04.939Z,65.87
2023-02-11T07:32:35.363Z,65.87
2023-02-11T07:35:04.747Z,65.92
2023-02-11T07:37:35.106Z,65.91
2023-02-11T07:40:04.092Z,65.86
2023-02-11T07:42:32.872Z,65.77
2023-02-11T07:45:01.906Z,65.70
2023-02-11T07:47:30.919Z,65.66
2023-02-11T07:49:59.538Z,65.74
2023-02-11T07:52:31.228Z,65.60
2023-02-11T07:54:59.249Z,65.58
2023-02-11T07:57:27.661Z,65.52
2023-02-11T07:59:56.340Z,65.42
2023-02-11T08:02:24.431Z,65.25
2023-02-11T08:04:53.447Z,65.23
2023-02-11T08:07:21.820Z,65.07
2023-02-11T08:09:55.641Z,65.06
2023-02-11T08:12:24.048Z,64.97
2023-02-11T08:14:52.130Z,64.92
2023-02-11T08:17:20.603Z,64.84
2023-02-11T08:19:48.944Z,64.73
2023-02-11T08:22:17.025Z,64.56
2023-02-11T08:24:45.382Z,64.67
2023-02-11T08:27:16.003Z,64.62
2023-02-11T08:29:44.318Z,64.49
2023-02-11T08:32:15.761Z,64.47
2023-02-11T08:34:44.322Z,64.36
2023-02-11T08:37:12.393Z,64.35
2023-02-11T08:39:40.549Z,64.27
2023-02-11T08:42:08.724Z,64.10
2023-02-11T08:44:37.767Z,63.90
2023-02-11T08:47:06.518Z,63.60
2023-02-11T08:49:35.254Z,63.47
2023-02-11T08:52:04.351Z,63.14
2023-02-11T08:54:34.741Z,62.55
2023-02-11T08:57:03.655Z,62.54
2023-02-11T08:59:31.783Z,62.37
2023-02-11T09:02:00.355Z,62.23
2023-02-11T09:04:28.563Z,61.97
2023-02-11T09:06:57.146Z,61.76
2023-02-11T09:09:26.205Z,61.41
2023-02-11T09:11:57.447Z,61.13
2023-02-11T09:14:25.437Z,60.96
2023-02-11T09:16:53.759Z,60.97
2023-02-11T09:19:25.587Z,60.84
2023-02-11T09:21:53.756Z,60.57
2023-02-11T09:24:22.285Z,60.02
2023-02-11T09:26:50.724Z,59.48
2023-02-11T09:29:18.769Z,59.16
2023-02-11T09:31:47.234Z,58.95
2023-02-11T09:34:16.005Z,59.03
2023-02-11T09:36:46.100Z,58.90
2023-02-11T09:39:17.350Z,58.56
2023-02-11T09:42:15.079Z,58.42
2023-02-11T09:44:44.447Z,57.96
2023-02-11T09:47:34.745Z,57.51
2023-02-11T09:50:07.983Z,57.39
2023-02-11T09:52:40.459Z,57.40
2023-02-11T09:55:22.351Z,57.53
2023-02-11T09:57:51.349Z,57.23
2023-02-11T10:00:21.971Z,56.57
2023-02-11T10:02:58.485Z,55.90
2023-02-11T10:05:44.725Z,55.56
2023-02-11T10:08:16.821Z,54.87
2023-02-11T10:10:54.628Z,54.47
2023-02-11T10:13:42.641Z,54.54
2023-02-11T10:16:35.826Z,54.35
2023-02-11T10:19:19.851Z,54.22
2023-02-11T10:22:00.257Z,54.26
2023-02-11T10:24:33.149Z,54.22
2023-02-11T10:27:04.478Z,54.15
2023-02-11T10:29:36.947Z,54.36
2023-02-11T10:32:09.488Z,54.40
2023-02-11T10:34:41.228Z,54.04
2023-02-11T10:37:13.093Z,53.68
2023-02-11T10:39:44.727Z,53.82
2023-02-11T10:42:13.509Z,53.71
2023-02-11T10:44:57.780Z,53.79
2023-02-11T10:47:28.799Z,53.34
2023-02-11T10:50:03.593Z,53.27
2023-02-11T10:52:34.390Z,53.47
2023-02-11T10:55:06.647Z,53.44
2023-02-11T10:57:38.320Z,53.62
2023-02-11T11:00:18.425Z,53.70
2023-02-11T11:02:53.648Z,53.81
2023-02-11T11:05:27.779Z,53.94
2023-02-11T11:08:05.075Z,54.14
2023-02-11T11:10:43.820Z,54.50
2023-02-11T11:13:25.961Z,54.64
2023-02-11T11:16:08.514Z,54.91
2023-02-11T11:18:37.707Z,55.34
2023-02-11T11:21:11.528Z,55.51
2023-02-11T11:23:39.687Z,55.63
2023-02-11T11:26:10.733Z,55.75
2023-02-11T11:28:41.693Z,55.87
2023-02-11T11:31:15.613Z,55.99
2023-02-11T11:33:46.830Z,56.10
2023-02-11T11:36:20.064Z,56.00
2023-02-11T11:38:55.922Z,56.12
2023-02-11T11:41:29.637Z,56.19
2023-02-11T11:44:04.445Z,56.38
2023-02-11T11:46:38.430Z,56.60
2023-02-11T11:49:26.882Z,56.69
2023-02-11T11:52:10.067Z,56.71
2023-02-11T11:54:38.701Z,57.01
2023-02-11T11:57:16.163Z,57.16
2023-02-11T11:59:44.796Z,57.38
2023-02-11T12:02:26.977Z,57.50
2023-02-11T12:05:22.176Z,57.70
2023-02-11T12:08:13.185Z,57.96
2023-02-11T12:10:52.053Z,58.06
2023-02-11T12:13:34.184Z,58.12
2023-02-11T12:16:24.385Z,58.25
2023-02-11T12:18:55.333Z,58.33
2023-02-11T12:21:30.044Z,58.38
2023-02-11T12:24:10.548Z,58.39
2023-02-11T12:26:50.226Z,58.42
2023-02-11T12:29:37.016Z,58.39
2023-02-11T12:32:39.412Z,58.52
2023-02-11T12:35:29.337Z,58.36
2023-02-11T12:38:29.967Z,58.28
2023-02-11T12:41:17.210Z,58.39
2023-02-11T12:43:45.411Z,58.24
2023-02-11T12:46:21.243Z,58.30
2023-02-11T12:49:12.430Z,58.47
2023-02-11T12:52:17.224Z,58.62
2023-02-11T12:54:52.362Z,58.75
2023-02-11T12:57:26.242Z,58.74
2023-02-11T13:00:25.379Z,58.79
2023-02-11T13:03:07.245Z,58.90
2023-02-11T13:05:55.888Z,58.88
2023-02-11T13:08:36.085Z,58.74
2023-02-11T13:11:21.832Z,58.87
2023-02-11T13:13:51.205Z,58.84
2023-02-11T13:16:39.774Z,58.73
2023-02-11T13:19:19.949Z,58.78
2023-02-11T13:22:17.143Z,59.03
2023-02-11T13:24:57.280Z,59.12
2023-02-11T13:27:37.127Z,59.20
2023-02-11T13:30:26.271Z,59.29
2023-02-11T13:32:55.732Z,59.48
2023-02-11T13:35:56.822Z,59.56
2023-02-11T13:38:27.823Z,59.49
2023-02-11T13:41:08.461Z,59.54
2023-02-11T13:43:37.259Z,59.59
2023-02-11T13:46:07.062Z,59.70
2023-02-11T13:48:38.594Z,59.91
2023-02-11T13:51:12.985Z,60.07
2023-02-11T13:53:49.695Z,60.24
2023-02-11T13:56:40.460Z,60.24
2023-02-11T13:59:44.183Z,60.45
2023-02-11T14:02:36.622Z,60.47
2023-02-11T14:05:24.740Z,60.56
2023-02-11T14:08:30.133Z,60.54
2023-02-11T14:11:25.806Z,60.75
2023-02-11T14:13:55.333Z,60.79
2023-02-11T14:16:37.030Z,60.89
2023-02-11T14:19:08.623Z,60.99
2023-02-11T14:21:38.485Z,61.12
2023-02-11T14:24:13.197Z,61.22
2023-02-11T14:27:21.809Z,61.37
2023-02-11T14:29:55.985Z,61.45
2023-02-11T14:32:56.228Z,61.38
2023-02-11T14:35:36.940Z,61.58
2023-02-11T14:38:24.282Z,61.63
2023-02-11T14:41:06.316Z,61.85
2023-02-11T14:43:38.861Z,62.00
2023-02-11T14:46:07.292Z,62.10
2023-02-11T14:48:37.489Z,62.25
2023-02-11T14:51:19.780Z,62.37
2023-02-11T14:53:50.055Z,62.61
2023-02-11T14:56:19.423Z,62.49
2023-02-11T14:58:49.025Z,62.52
2023-02-11T15:01:35.413Z,62.61
2023-02-11T15:04:06.219Z,62.77
2023-02-11T15:06:47.603Z,62.92
2023-02-11T15:09:27.166Z,63.03
2023-02-11T15:11:56.318Z,63.37
2023-02-11T15:14:33.324Z,63.82
2023-02-11T15:17:03.941Z,64.33
2023-02-11T15:19:38.728Z,64.90
2023-02-11T15:22:22.308Z,65.35
2023-02-11T15:25:02.351Z,65.68
2023-02-11T15:27:42.173Z,66.00
2023-02-11T15:30:23.275Z,66.38
2023-02-11T15:32:59.431Z,66.53
2023-02-11T15:35:33.383Z,66.72
2023-02-11T15:38:02.620Z,66.96
2023-02-11T15:40:33.994Z,67.11
2023-02-11T15:43:05.975Z,66.88
2023-02-11T15:45:36.780Z,66.68
2023-02-11T15:48:20.816Z,66.62
2023-02-11T15:50:56.081Z,66.72
2023-02-11T15:53:29.863Z,66.80
2023-02-11T15:56:25.216Z,66.90
2023-02-11T15:58:55.468Z,67.01
2023-02-11T16:01:34.561Z,67.38
2023-02-11T16:04:09.199Z,67.39
2023-02-11T16:06:40.450Z,67.60
2023-02-11T16:09:10.594Z,67.73
2023-02-11T16:11:48.399Z,67.80
2023-02-11T16:14:37.499Z,67.87
2023-02-11T16:17:22.787Z,67.94
2023-02-11T16:19:51.750Z,67.92
2023-02-11T16:22:27.776Z,68.05
2023-02-11T16:24:58.691Z,68.11
2023-02-11T16:27:41.164Z,68.28
2023-02-11T16:30:32.924Z,68.36
2023-02-11T16:33:02.015Z,68.50
2023-02-11T16:35:32.099Z,68.51
2023-02-11T16:38:00.454Z,68.65
2023-02-11T16:40:29.130Z,68.81
2023-02-11T16:42:58.872Z,68.89
2023-02-11T16:45:27.236Z,68.90
2023-02-11T16:47:55.994Z,69.02
2023-02-11T16:50:25.380Z,69.12
2023-02-11T16:52:54.504Z,69.20
2023-02-11T16:55:26.673Z,69.32
2023-02-11T16:57:56.028Z,69.29
2023-02-11T17:00:25.317Z,69.52
2023-02-11T17:02:54.615Z,69.65
2023-02-11T17:05:24.015Z,69.71
2023-02-11T17:07:53.045Z,69.75
2023-02-11T17:10:23.579Z,69.80
2023-02-11T17:12:56.370Z,69.91
2023-02-11T17:15:26.270Z,69.95
2023-02-11T17:17:59.164Z,69.88
2023-02-11T17:20:28.521Z,69.91
2023-02-11T17:22:57.051Z,69.90
2023-02-11T17:25:27.534Z,69.86
2023-02-11T17:27:56.626Z,69.78
2023-02-11T17:30:25.440Z,69.82
2023-02-11T17:32:54.093Z,69.75
2023-02-11T17:35:22.486Z,69.73
2023-02-11T17:37:51.260Z,69.69
2023-02-11T17:40:19.672Z,69.49
2023-02-11T17:42:48.732Z,69.42
2023-02-11T17:45:17.045Z,69.24
2023-02-11T17:47:48.314Z,69.06
2023-02-11T17:50:17.130Z,68.82
2023-02-11T17:52:45.829Z,68.76
2023-02-11T17:55:14.273Z,68.52
2023-02-11T17:57:43.128Z,68.33
2023-02-11T18:00:13.301Z,68.16
2023-02-11T18:02:41.694Z,67.93
2023-02-11T18:05:10.611Z,67.73
2023-02-11T18:07:40.750Z,67.58
2023-02-11T18:10:09.763Z,67.44
2023-02-11T18:12:38.402Z,67.42
2023-02-11T18:15:07.309Z,67.32
2023-02-11T18:17:36.307Z,67.13
2023-02-11T18:20:05.889Z,67.18
2023-02-11T18:22:39.318Z,67.11
2023-02-11T18:25:08.477Z,67.08
2023-02-11T18:27:37.824Z,67.05
2023-02-11T18:30:09.367Z,67.00
2023-02-11T18:32:37.827Z,66.92
2023-02-11T18:35:09.253Z,66.78
2023-02-11T18:37:41.016Z,66.74
2023-02-11T18:40:10.518Z,66.60
2023-02-11T18:42:39.332Z,66.46
2023-02-11T18:45:12.066Z,66.35
2023-02-11T18:47:40.981Z,66.01
2023-02-11T18:50:10.645Z,66.05
2023-02-11T18:52:39.075Z,65.85
2023-02-11T18:55:08.471Z,65.74
2023-02-11T18:57:37.060Z,65.67
2023-02-11T19:00:08.482Z,65.43
2023-02-11T19:02:42.482Z,65.26
2023-02-11T19:05:12.849Z,65.00
2023-02-11T19:07:43.608Z,64.96
2023-02-11T19:10:15.839Z,64.69
2023-02-11T19:12:48.109Z,64.48
2023-02-11T19:15:18.591Z,64.33
2023-02-11T19:17:51.817Z,64.23
2023-02-11T19:20:25.498Z,63.95
2023-02-11T19:22:54.224Z,64.01
2023-02-11T19:25:28.319Z,63.90
2023-02-11T19:27:58.273Z,63.64
2023-02-11T19:30:31.024Z,63.58
2023-02-11T19:33:01.203Z,63.57
2023-02-11T19:35:31.162Z,63.43
2023-02-11T19:38:02.348Z,63.39
2023-02-11T19:40:34.528Z,63.19
2023-02-11T19:43:12.518Z,63.03
2023-02-11T19:45:44.210Z,62.84
2023-02-11T19:48:13.923Z,62.71
2023-02-11T19:50:43.369Z,62.76
2023-02-11T19:53:13.684Z,62.55
2023-02-11T19:55:50.527Z,62.50
2023-02-11T19:58:21.789Z,62.53
2023-02-11T20:00:53.049Z,62.46
2023-02-11T20:03:22.564Z,62.33
2023-02-11T20:05:51.662Z,62.17
2023-02-11T20:08:21.577Z,62.11
2023-02-11T20:10:50.452Z,62.06
2023-02-11T20:13:19.811Z,62.09
2023-02-11T20:15:50.526Z,62.04
2023-02-11T20:18:21.266Z,62.12
2023-02-11T20:20:54.006Z,62.09
2023-02-11T20:23:22.577Z,61.98
2023-02-11T20:25:53.601Z,61.95
2023-02-11T20:28:22.429Z,61.84
2023-02-11T20:30:57.676Z,62.05
2023-02-11T20:33:26.410Z,62.38
2023-02-11T20:36:03.171Z,62.84
2023-02-11T20:38:32.437Z,63.21
2023-02-11T20:41:10.562Z,63.52
2023-02-11T20:43:38.969Z,63.81
2023-02-11T20:46:27.928Z,63.89
2023-02-11T20:49:07.380Z,63.96
2023-02-11T20:51:39.184Z,64.05
2023-02-11T20:54:31.113Z,64.14
2023-02-11T20:57:02.502Z,64.03
2023-02-11T20:59:39.096Z,63.83
2023-02-11T21:02:13.469Z,63.70
2023-02-11T21:04:44.442Z,63.64
2023-02-11T21:07:14.977Z,63.64
2023-02-11T21:09:49.346Z,63.49
2023-02-11T21:12:25.385Z,63.38
2023-02-11T21:14:58.123Z,63.29
2023-02-11T21:17:27.835Z,63.08
2023-02-11T21:20:00.229Z,62.83
2023-02-11T21:22:28.651Z,62.82
2023-02-11T21:24:57.684Z,62.72
2023-02-11T21:27:33.334Z,62.53
2023-02-11T21:30:01.810Z,62.44
2023-02-11T21:32:30.494Z,62.66
2023-02-11T21:35:02.385Z,62.89
2023-02-11T21:37:33.447Z,63.35
2023-02-11T21:40:03.115Z,63.78
2023-02-11T21:42:32.430Z,64.17
2023-02-11T21:45:04.636Z,64.45
2023-02-11T21:47:33.401Z,64.59
2023-02-11T21:50:02.432Z,64.72
2023-02-11T21:52:31.095Z,64.79
2023-02-11T21:55:01.466Z,64.94
2023-02-11T21:57:32.061Z,64.99
2023-02-11T22:00:09.454Z,65.01
2023-02-11T22:02:39.286Z,65.12
2023-02-11T22:05:18.996Z,65.24
2023-02-11T22:07:49.262Z,65.22
2023-02-11T22:10:21.391Z,65.16
2023-02-11T22:12:52.310Z,65.10
2023-02-11T22:15:26.677Z,65.18
2023-02-11T22:17:55.493Z,65.13
2023-02-11T22:20:23.844Z,65.12
2023-02-11T22:22:52.402Z,65.13
2023-02-11T22:25:22.918Z,65.14
2023-02-11T22:27:54.796Z,65.14
2023-02-11T22:30:23.370Z,65.06
2023-02-11T22:32:52.669Z,65.01
2023-02-11T22:35:21.047Z,64.88
2023-02-11T22:37:54.227Z,64.84
2023-02-11T22:40:23.969Z,64.92
2023-02-11T22:42:53.590Z,64.87
2023-02-11T22:45:22.110Z,64.91
2023-02-11T22:48:04.549Z,64.80
2023-02-11T22:50:36.506Z,64.73
2023-02-11T22:53:06.986Z,64.67
2023-02-11T22:55:39.263Z,64.77
2023-02-11T22:58:12.634Z,64.67
2023-02-11T23:00:49.041Z,64.76
2023-02-11T23:03:20.284Z,64.79
2023-02-11T23:05:51.223Z,64.83
2023-02-11T23:08:23.086Z,64.87
2023-02-11T23:10:54.036Z,65.03
2023-02-11T23:13:27.043Z,65.71
2023-02-11T23:15:57.063Z,66.31
2023-02-11T23:18:25.479Z,66.72
2023-02-11T23:20:54.605Z,66.94
2023-02-11T23:23:24.328Z,67.30
2023-02-11T23:25:52.900Z,67.64
2023-02-11T23:36:02.452Z,69.64
2023-02-11T23:38:34.220Z,70.15
2023-02-11T23:41:02.550Z,70.57
2023-02-11T23:43:31.005Z,71.07
2023-02-11T23:46:00.489Z,71.45
2023-02-11T23:48:29.515Z,71.68
2023-02-11T23:50:57.836Z,72.04
2023-02-11T23:53:26.368Z,72.38
2023-02-11T23:55:55.720Z,72.61
2023-02-11T23:58:24.388Z,72.73
